Time;durP1;ratioP1;P1;durP2;ratioP2;P2;SDS_P1;SDS_P2;PMS_P1;PMS_P2;Temp;Humidity;BMP_temperature;BMP_pressure;BME280_temperature;BME280_humidity;BME280_pressure;Samples;Min_cycle;Max_cycle;Signal;HPM_P1;HPM_P2
2024/04/14 00:00:37;;;;;;;4.88;1.77;;;15.80;99.90;;;;;;5442065;26;20060;-72
2024/04/14 00:03:03;;;;;;;5.50;1.67;;;15.80;99.90;;;;;;5451686;26;20014;-72
2024/04/14 00:05:29;;;;;;;4.40;1.95;;;15.90;99.90;;;;;;5444556;26;19998;-72
2024/04/14 00:07:54;;;;;;;7.30;1.70;;;15.80;99.90;;;;;;5456181;26;20066;-72
2024/04/14 00:10:20;;;;;;;6.80;2.30;;;15.70;99.90;;;;;;5442218;26;19994;-72
2024/04/14 00:12:46;;;;;;;6.65;2.03;;;15.60;99.90;;;;;;5468573;26;20029;-71
2024/04/14 00:15:11;;;;;;;8.98;1.98;;;15.50;99.90;;;;;;5474015;26;20013;-71
2024/04/14 00:17:38;;;;;;;8.20;2.17;;;15.40;99.90;;;;;;5456967;26;20001;-71
2024/04/14 00:20:06;;;;;;;8.10;2.55;;;15.40;99.90;;;;;;5461690;26;20010;-72
2024/04/14 00:22:31;;;;;;;4.72;1.90;;;15.40;99.90;;;;;;5395465;26;20003;-72
2024/04/14 00:24:57;;;;;;;12.13;2.95;;;15.50;99.90;;;;;;5429672;26;20420;-72
2024/04/14 00:27:23;;;;;;;8.52;2.00;;;15.40;99.90;;;;;;5462921;26;20443;-72
2024/04/14 00:29:48;;;;;;;9.65;2.42;;;15.50;99.90;;;;;;5408352;26;19999;-72
2024/04/14 00:32:14;;;;;;;10.93;2.50;;;15.30;99.90;;;;;;5443842;26;20003;-72
2024/04/14 00:34:40;;;;;;;8.38;2.88;;;15.30;99.90;;;;;;5430486;26;20521;-72
2024/04/14 00:37:06;;;;;;;9.68;2.53;;;15.10;99.90;;;;;;5447861;26;20014;-72
2024/04/14 00:39:31;;;;;;;12.13;3.40;;;15.10;99.90;;;;;;5457619;26;20002;-71
2024/04/14 00:41:58;;;;;;;10.43;2.50;;;15.00;99.90;;;;;;5401131;26;19998;-73
2024/04/14 00:44:24;;;;;;;12.40;3.15;;;14.90;99.90;;;;;;5466104;26;20075;-71
2024/04/14 00:46:51;;;;;;;12.35;3.03;;;14.90;99.90;;;;;;5476784;26;20034;-71
2024/04/14 00:49:18;;;;;;;12.73;3.30;;;14.90;99.90;;;;;;5444855;26;20071;-72
2024/04/14 00:51:43;;;;;;;8.55;2.40;;;15.10;99.90;;;;;;5446246;26;20006;-71
2024/04/14 00:54:11;;;;;;;6.15;2.53;;;15.10;99.90;;;;;;5403369;26;20762;-72
2024/04/14 00:56:37;;;;;;;14.25;2.85;;;15.20;99.90;;;;;;5416194;26;20425;-71
2024/04/14 00:59:04;;;;;;;12.10;3.05;;;15.10;99.90;;;;;;5429323;26;20127;-72
2024/04/14 01:01:31;;;;;;;8.30;3.30;;;15.20;99.90;;;;;;5422239;26;20018;-73
2024/04/14 01:03:57;;;;;;;12.23;3.28;;;15.10;99.90;;;;;;5438496;26;19995;-72
2024/04/14 01:06:23;;;;;;;12.93;3.20;;;15.10;99.90;;;;;;5460108;26;20068;-71
2024/04/14 01:08:49;;;;;;;14.32;2.70;;;14.90;99.90;;;;;;5437187;26;20079;-72
2024/04/14 01:11:15;;;;;;;11.15;3.85;;;14.80;99.90;;;;;;5416509;26;20459;-72
2024/04/14 01:13:44;;;;;;;13.60;3.83;;;14.70;99.90;;;;;;5418422;26;19998;-72
2024/04/14 01:16:10;;;;;;;12.13;3.50;;;14.60;99.90;;;;;;5464645;26;19998;-72
2024/04/14 01:18:36;;;;;;;12.77;3.38;;;14.60;99.90;;;;;;5401835;26;19999;-72
2024/04/14 01:21:02;;;;;;;14.35;4.15;;;14.70;99.90;;;;;;5428656;26;20014;-73
2024/04/14 01:23:27;;;;;;;10.57;3.60;;;14.60;99.90;;;;;;5429838;26;20003;-71
2024/04/14 01:25:55;;;;;;;10.23;3.53;;;14.50;99.90;;;;;;5397136;26;20015;-72
2024/04/14 01:28:21;;;;;;;9.68;3.70;;;14.50;99.90;;;;;;5427157;26;20003;-72
2024/04/14 01:30:46;;;;;;;19.48;4.60;;;14.60;99.90;;;;;;5447855;26;20005;-72
2024/04/14 01:33:12;;;;;;;18.48;4.13;;;14.60;99.90;;;;;;5429798;26;19994;-71
2024/04/14 01:35:38;;;;;;;22.13;4.95;;;14.70;99.90;;;;;;5461761;26;20006;-74
2024/04/14 01:38:04;;;;;;;13.60;4.35;;;14.70;99.90;;;;;;5395820;26;20007;-71
2024/04/14 01:40:29;;;;;;;10.52;4.25;;;14.50;99.90;;;;;;5422727;26;20017;-72
2024/04/14 01:42:55;;;;;;;13.98;4.93;;;14.40;99.90;;;;;;5471085;26;20439;-72
2024/04/14 01:45:21;;;;;;;17.75;5.18;;;14.30;99.90;;;;;;5397234;26;19998;-73
2024/04/14 01:47:46;;;;;;;16.27;4.32;;;14.20;99.90;;;;;;5430793;26;20443;-71
2024/04/14 01:50:12;;;;;;;16.00;5.03;;;14.10;99.90;;;;;;5433244;26;20440;-73
2024/04/14 01:52:38;;;;;;;16.92;4.63;;;14.10;99.90;;;;;;5426624;26;19998;-72
2024/04/14 01:55:04;;;;;;;17.42;4.70;;;14.00;99.90;;;;;;5465403;26;20005;-73
2024/04/14 01:57:31;;;;;;;19.05;5.47;;;14.00;99.90;;;;;;5413784;26;20064;-72
2024/04/14 01:59:57;;;;;;;16.38;5.15;;;14.00;99.90;;;;;;5413808;26;20450;-71
2024/04/14 02:02:23;;;;;;;16.48;4.70;;;14.10;99.90;;;;;;5420406;26;20011;-72
2024/04/14 02:04:49;;;;;;;21.38;5.10;;;14.10;99.90;;;;;;5377729;26;19998;-71
2024/04/14 02:07:14;;;;;;;18.85;5.68;;;14.20;99.90;;;;;;5392516;26;20076;-71
2024/04/14 02:09:40;;;;;;;14.63;4.97;;;14.40;99.90;;;;;;5422037;26;19999;-71
2024/04/14 02:12:05;;;;;;;17.10;5.05;;;14.40;99.90;;;;;;5440037;26;19998;-72
2024/04/14 02:14:31;;;;;;;16.80;5.13;;;14.50;99.90;;;;;;5453085;26;20046;-73
2024/04/14 02:16:57;;;;;;;18.52;5.47;;;14.60;99.90;;;;;;5490222;26;20058;-72
2024/04/14 02:19:22;;;;;;;20.65;6.03;;;14.60;99.90;;;;;;5473043;26;20007;-73
2024/04/14 02:21:48;;;;;;;20.20;6.30;;;14.50;99.90;;;;;;5458542;26;20006;-72
2024/04/14 02:24:13;;;;;;;19.77;6.45;;;14.30;99.90;;;;;;5456091;26;20498;-71
2024/04/14 02:26:40;;;;;;;15.98;6.05;;;14.30;99.90;;;;;;5399738;26;20549;-73
2024/04/14 02:29:07;;;;;;;20.33;5.93;;;14.20;99.90;;;;;;5423228;26;20382;-73
2024/04/14 02:31:32;;;;;;;19.88;6.10;;;14.20;99.90;;;;;;5479273;26;20002;-72
2024/04/14 02:33:58;;;;;;;24.80;6.10;;;14.20;99.90;;;;;;5417182;26;20316;-71
2024/04/14 02:36:27;;;;;;;19.08;6.65;;;14.20;99.90;;;;;;5418008;26;19994;-71
2024/04/14 02:38:53;;;;;;;22.85;7.07;;;14.00;99.90;;;;;;5430953;26;19999;-71
2024/04/14 02:41:18;;;;;;;17.75;6.15;;;14.00;99.90;;;;;;5434321;26;20013;-72
2024/04/14 02:43:45;;;;;;;21.42;7.05;;;14.10;99.90;;;;;;5473651;26;20006;-71
2024/04/14 02:46:11;;;;;;;18.42;6.60;;;14.20;99.90;;;;;;5398626;26;20048;-71
2024/04/14 02:48:37;;;;;;;19.48;6.05;;;14.20;99.90;;;;;;5480530;26;20065;-72
2024/04/14 02:51:03;;;;;;;19.67;7.38;;;14.30;99.90;;;;;;5460419;26;20011;-72
2024/04/14 02:53:29;;;;;;;22.40;6.85;;;14.20;99.90;;;;;;5439061;26;20003;-72
2024/04/14 02:55:55;;;;;;;21.33;6.70;;;14.20;99.90;;;;;;5439513;26;20011;-71
2024/04/14 02:58:21;;;;;;;18.77;6.80;;;14.10;99.90;;;;;;5434697;26;20013;-72
2024/04/14 03:00:46;;;;;;;22.48;6.55;;;14.10;99.90;;;;;;5469422;26;19999;-72
2024/04/14 03:03:12;;;;;;;18.20;6.53;;;14.20;99.90;;;;;;5439329;26;20432;-72
2024/04/14 03:05:38;;;;;;;20.55;7.05;;;14.20;99.90;;;;;;5439961;26;19999;-72
2024/04/14 03:08:05;;;;;;;19.50;6.60;;;14.10;99.90;;;;;;5427086;26;20519;-72
2024/04/14 03:10:32;;;;;;;21.23;6.15;;;14.20;99.90;;;;;;5425823;26;19998;-72
2024/04/14 03:12:58;;;;;;;20.20;6.60;;;14.10;99.90;;;;;;5473150;26;20002;-72
2024/04/14 03:15:23;;;;;;;17.17;5.65;;;14.20;99.90;;;;;;5417999;26;19998;-72
2024/04/14 03:17:49;;;;;;;29.33;6.10;;;14.20;99.90;;;;;;5374342;26;20013;-71
2024/04/14 03:20:15;;;;;;;19.17;5.75;;;14.30;99.90;;;;;;5408753;26;20442;-72
2024/04/14 03:22:41;;;;;;;16.77;6.63;;;14.30;99.90;;;;;;5410774;26;20043;-72
2024/04/14 03:25:06;;;;;;;20.40;6.40;;;14.30;99.90;;;;;;5464518;26;19998;-72
2024/04/14 03:27:32;;;;;;;21.73;7.18;;;14.30;99.90;;;;;;5433935;26;19999;-72
2024/04/14 03:29:57;;;;;;;18.30;7.20;;;14.10;99.90;;;;;;5404902;26;19998;-73
2024/04/14 03:32:23;;;;;;;20.98;7.68;;;14.10;99.90;;;;;;5422716;26;20339;-71
2024/04/14 03:34:51;;;;;;;25.10;9.10;;;13.90;99.90;;;;;;5405063;26;19998;-73
2024/04/14 03:37:17;;;;;;;25.00;8.45;;;13.90;99.90;;;;;;5430037;26;20015;-73
2024/04/14 03:39:43;;;;;;;24.48;7.75;;;13.80;99.90;;;;;;5482980;26;20074;-72
2024/04/14 03:42:08;;;;;;;25.13;9.65;;;13.70;99.90;;;;;;5400629;26;20083;-72
2024/04/14 03:44:34;;;;;;;20.08;8.25;;;13.70;99.90;;;;;;5467464;26;20400;-73
2024/04/14 03:47:00;;;;;;;22.35;8.05;;;13.60;99.90;;;;;;5448660;26;20003;-73
2024/04/14 03:49:25;;;;;;;21.83;8.18;;;13.60;99.90;;;;;;5444240;26;20027;-72
2024/04/14 03:51:51;;;;;;;24.23;8.20;;;13.50;99.90;;;;;;5412695;26;20331;-71
2024/04/14 03:54:17;;;;;;;25.23;8.88;;;13.50;99.90;;;;;;5431227;26;20026;-71
2024/04/14 03:56:42;;;;;;;21.02;7.85;;;13.50;99.90;;;;;;5471433;26;20021;-72
2024/04/14 03:59:09;;;;;;;22.58;8.30;;;13.50;99.90;;;;;;5423208;26;19995;-72
2024/04/14 04:01:34;;;;;;;28.85;9.18;;;13.60;99.90;;;;;;5406435;26;20022;-73
2024/04/14 04:04:00;;;;;;;29.13;9.07;;;13.50;99.90;;;;;;5435838;26;20010;-72
2024/04/14 04:06:26;;;;;;;25.25;9.05;;;13.60;99.90;;;;;;5433185;26;19995;-72
2024/04/14 04:08:52;;;;;;;26.67;9.68;;;13.60;99.90;;;;;;5427254;26;19999;-72
2024/04/14 04:11:17;;;;;;;25.58;9.82;;;13.60;99.90;;;;;;5449922;26;20019;-73
2024/04/14 04:13:43;;;;;;;27.13;9.77;;;13.70;99.90;;;;;;5427725;26;20087;-72
2024/04/14 04:16:09;;;;;;;22.42;9.00;;;13.80;99.90;;;;;;5495614;26;19994;-72
2024/04/14 04:18:35;;;;;;;24.42;8.77;;;13.90;99.90;;;;;;5455199;26;20014;-71
2024/04/14 04:21:02;;;;;;;24.98;10.18;;;14.10;99.90;;;;;;5438065;26;20009;-73
2024/04/14 04:23:28;;;;;;;28.35;9.85;;;14.10;99.90;;;;;;5440945;26;20020;-71
2024/04/14 04:25:59;;;;;;;24.92;10.57;;;14.00;99.90;;;;;;5455497;26;19994;-73
2024/04/14 04:28:26;;;;;;;25.65;9.07;;;14.10;99.90;;;;;;5448452;26;19995;-72
2024/04/14 04:30:52;;;;;;;28.40;10.40;;;14.10;99.90;;;;;;5449932;26;20005;-73
2024/04/14 04:33:19;;;;;;;25.42;9.82;;;14.00;99.90;;;;;;5447454;26;19994;-72
2024/04/14 04:35:55;;;;;;;24.38;9.63;;;14.10;99.90;;;;;;5391227;26;20063;-72
2024/04/14 04:38:25;;;;;;;29.83;11.32;;;13.90;99.90;;;;;;5392721;26;20010;-71
2024/04/14 04:40:52;;;;;;;23.52;10.50;;;13.80;99.90;;;;;;5424623;26;20003;-71
2024/04/14 04:43:19;;;;;;;25.90;10.90;;;13.80;99.90;;;;;;5456334;26;20009;-71
2024/04/14 04:45:44;;;;;;;34.22;11.75;;;13.60;99.90;;;;;;5425026;26;20027;-72
2024/04/14 04:48:10;;;;;;;36.08;12.60;;;13.60;99.90;;;;;;5425071;26;20009;-72
2024/04/14 04:50:36;;;;;;;36.50;11.85;;;13.60;99.90;;;;;;5422606;26;20044;-72
2024/04/14 04:53:02;;;;;;;32.85;12.05;;;13.60;99.90;;;;;;5442119;26;19994;-71
2024/04/14 04:55:28;;;;;;;25.05;10.38;;;13.50;99.90;;;;;;5408390;26;19995;-72
2024/04/14 04:57:54;;;;;;;31.75;11.07;;;13.60;99.90;;;;;;5418037;26;19991;-71
2024/04/14 05:00:19;;;;;;;25.58;10.57;;;13.60;99.90;;;;;;5426336;26;20074;-72
2024/04/14 05:02:45;;;;;;;37.72;11.40;;;13.60;99.90;;;;;;5434754;26;20002;-72
2024/04/14 05:05:10;;;;;;;31.85;11.88;;;13.70;99.90;;;;;;5448578;26;20328;-74
2024/04/14 05:07:36;;;;;;;28.85;10.57;;;13.90;99.90;;;;;;5430120;26;20013;-73
2024/04/14 05:10:02;;;;;;;31.60;12.90;;;14.10;99.90;;;;;;5398128;26;20014;-79
2024/04/14 05:12:28;;;;;;;34.13;12.27;;;14.20;99.90;;;;;;5418348;26;20063;-72
2024/04/14 05:14:53;;;;;;;33.40;12.13;;;14.20;99.90;;;;;;5496682;26;20028;-72
2024/04/14 05:17:19;;;;;;;32.85;11.73;;;14.20;99.90;;;;;;5480661;26;19999;-71
2024/04/14 05:19:44;;;;;;;27.27;12.13;;;14.20;99.90;;;;;;5420696;26;19995;-72
2024/04/14 05:22:10;;;;;;;35.47;11.77;;;14.20;99.90;;;;;;5370512;26;20005;-72
2024/04/14 05:24:36;;;;;;;28.90;11.70;;;14.20;99.90;;;;;;5426170;26;20339;-72
2024/04/14 05:27:03;;;;;;;29.45;11.45;;;14.10;99.90;;;;;;5432083;26;20010;-72
2024/04/14 05:29:30;;;;;;;32.75;12.63;;;14.10;99.90;;;;;;5448283;26;19994;-72
2024/04/14 05:31:56;;;;;;;28.90;12.57;;;14.10;99.90;;;;;;5440548;26;20017;-72
2024/04/14 05:34:21;;;;;;;25.15;11.88;;;14.20;99.90;;;;;;5430960;26;20014;-72
2024/04/14 05:36:47;;;;;;;31.38;12.25;;;14.30;99.90;;;;;;5396993;26;20002;-72
2024/04/14 05:39:13;;;;;;;27.17;11.25;;;14.30;99.90;;;;;;5391627;26;20005;-72
2024/04/14 05:41:39;;;;;;;28.42;12.20;;;14.30;99.90;;;;;;5472114;26;20078;-73
2024/04/14 05:44:04;;;;;;;35.47;12.60;;;14.30;99.90;;;;;;5433150;26;20006;-74
2024/04/14 05:46:30;;;;;;;34.30;12.68;;;14.20;99.90;;;;;;5435860;26;19994;-72
2024/04/14 05:48:55;;;;;;;39.15;12.45;;;14.20;99.90;;;;;;5432207;26;20008;-75
2024/04/14 05:51:21;;;;;;;33.60;12.43;;;14.20;99.90;;;;;;5462135;26;19999;-72
2024/04/14 05:53:48;;;;;;;28.95;11.98;;;14.40;99.90;;;;;;5425661;26;20013;-73
2024/04/14 05:56:14;;;;;;;35.25;13.02;;;14.30;99.90;;;;;;5453598;26;20323;-72
2024/04/14 05:58:40;;;;;;;33.88;12.88;;;14.30;99.90;;;;;;5440551;26;19995;-72
2024/04/14 06:01:10;;;;;;;31.15;12.75;;;14.40;99.90;;;;;;5404034;26;20024;-73
2024/04/14 06:03:37;;;;;;;38.42;13.25;;;14.50;99.90;;;;;;5455681;26;20087;-72
2024/04/14 06:06:02;;;;;;;31.15;11.70;;;14.60;99.90;;;;;;5466884;26;20009;-72
2024/04/14 06:08:28;;;;;;;36.10;12.65;;;14.60;99.90;;;;;;5492270;26;19994;-72
2024/04/14 06:10:55;;;;;;;31.73;12.85;;;14.60;99.90;;;;;;5459603;26;20349;-72
2024/04/14 06:13:23;;;;;;;32.05;13.52;;;14.60;99.90;;;;;;5479690;26;19998;-72
2024/04/14 06:15:49;;;;;;;29.83;12.25;;;14.70;99.90;;;;;;5387161;26;20014;-72
2024/04/14 06:18:14;;;;;;;38.65;13.20;;;14.60;99.90;;;;;;5394996;26;19998;-74
2024/04/14 06:20:40;;;;;;;29.95;13.73;;;14.50;99.90;;;;;;5464306;26;20014;-72
2024/04/14 06:23:06;;;;;;;28.88;13.02;;;14.40;99.90;;;;;;5457188;26;20002;-73
2024/04/14 06:25:32;;;;;;;41.53;13.75;;;14.40;99.90;;;;;;5469361;26;20050;-73
2024/04/14 06:27:57;;;;;;;35.00;13.95;;;14.50;99.90;;;;;;5432581;26;19999;-73
2024/04/14 06:30:23;;;;;;;31.27;13.00;;;14.40;99.90;;;;;;5460460;26;20007;-72
2024/04/14 06:32:50;;;;;;;22.58;11.30;;;14.50;99.90;;;;;;5447047;26;20041;-73
2024/04/14 06:35:16;;;;;;;32.97;13.52;;;14.60;99.90;;;;;;5489916;26;19998;-75
2024/04/14 06:37:42;;;;;;;31.02;13.35;;;14.60;99.90;;;;;;5403920;26;20325;-73
2024/04/14 06:40:09;;;;;;;36.60;13.75;;;14.70;99.90;;;;;;5414462;26;20010;-74
2024/04/14 06:42:34;;;;;;;33.05;13.82;;;14.80;99.90;;;;;;5472799;26;20002;-75
2024/04/14 06:45:00;;;;;;;31.13;12.35;;;14.80;99.90;;;;;;5419174;26;20001;-74
2024/04/14 06:47:26;;;;;;;29.25;12.80;;;14.80;99.90;;;;;;5435152;26;20008;-71
2024/04/14 06:49:51;;;;;;;32.80;14.07;;;14.80;99.90;;;;;;5490783;26;20013;-72
2024/04/14 06:52:17;;;;;;;39.42;13.63;;;14.80;99.90;;;;;;5375559;26;20108;-72
2024/04/14 06:54:42;;;;;;;39.03;15.18;;;14.80;99.90;;;;;;5374826;26;20011;-74
2024/04/14 06:57:08;;;;;;;37.95;14.07;;;14.90;99.90;;;;;;5417530;26;20014;-72
2024/04/14 06:59:35;;;;;;;31.52;14.45;;;15.00;99.90;;;;;;5400823;26;20017;-72
2024/04/14 07:02:00;;;;;;;39.08;14.30;;;15.10;99.90;;;;;;5414640;26;20011;-72
2024/04/14 07:04:26;;;;;;;32.70;12.80;;;15.20;99.90;;;;;;5433578;26;20001;-72
2024/04/14 07:06:52;;;;;;;28.98;12.45;;;15.30;99.90;;;;;;5452975;26;19999;-72
2024/04/14 07:09:17;;;;;;;34.35;13.07;;;15.40;99.90;;;;;;5364480;26;19995;-73
2024/04/14 07:11:43;;;;;;;29.60;11.70;;;15.50;99.90;;;;;;5421800;26;20002;-71
2024/04/14 07:14:09;;;;;;;32.95;13.23;;;15.70;99.90;;;;;;5428879;26;19995;-74
2024/04/14 07:16:35;;;;;;;28.38;11.45;;;15.80;99.90;;;;;;5416146;26;20039;-72
2024/04/14 07:19:00;;;;;;;29.42;12.52;;;15.80;99.90;;;;;;5420960;26;20071;-71
2024/04/14 07:21:26;;;;;;;30.65;11.88;;;15.90;99.90;;;;;;5441010;26;20009;-74
2024/04/14 07:23:52;;;;;;;24.13;12.07;;;15.90;99.90;;;;;;5424110;26;20400;-76
2024/04/14 07:26:17;;;;;;;21.38;11.57;;;15.90;99.90;;;;;;5439326;26;20002;-75
2024/04/14 07:28:43;;;;;;;26.92;11.38;;;16.10;99.90;;;;;;5411212;26;19999;-76
2024/04/14 07:31:08;;;;;;;34.17;12.25;;;16.10;99.90;;;;;;5393633;26;20070;-75
2024/04/14 07:33:37;;;;;;;29.70;11.55;;;16.30;99.90;;;;;;5433071;26;20001;-72
2024/04/14 07:36:03;;;;;;;22.85;10.10;;;16.30;99.90;;;;;;5450220;26;19998;-73
2024/04/14 07:38:29;;;;;;;27.05;10.00;;;16.40;99.90;;;;;;5418085;26;19998;-73
2024/04/14 07:40:55;;;;;;;30.80;9.50;;;16.50;99.90;;;;;;5389096;26;20010;-74
2024/04/14 07:43:21;;;;;;;19.95;7.88;;;16.50;99.90;;;;;;5442045;26;19998;-72
2024/04/14 07:45:47;;;;;;;20.75;8.55;;;16.70;99.90;;;;;;5420501;26;19999;-71
2024/04/14 07:48:13;;;;;;;19.50;7.55;;;16.70;99.90;;;;;;5423321;26;19999;-71
2024/04/14 07:50:43;;;;;;;24.45;8.63;;;16.80;99.90;;;;;;5398527;26;19994;-71
2024/04/14 07:53:09;;;;;;;23.75;7.90;;;16.90;99.90;;;;;;5456271;26;19999;-73
2024/04/14 07:55:35;;;;;;;22.73;7.97;;;17.00;99.90;;;;;;5403135;26;19999;-71
2024/04/14 07:58:01;;;;;;;20.85;6.90;;;17.10;99.90;;;;;;5445265;26;20054;-72
2024/04/14 08:00:27;;;;;;;26.30;7.20;;;17.00;99.90;;;;;;5421302;26;20447;-72
2024/04/14 08:02:52;;;;;;;17.90;7.10;;;17.00;99.90;;;;;;5458331;26;20002;-71
2024/04/14 08:05:18;;;;;;;19.20;7.90;;;17.10;99.90;;;;;;5471740;26;20003;-71
2024/04/14 08:07:44;;;;;;;22.20;7.80;;;17.20;99.90;;;;;;5464050;26;19999;-72
2024/04/14 08:10:09;;;;;;;22.23;6.93;;;17.40;99.90;;;;;;5439548;26;20018;-72
2024/04/14 08:12:36;;;;;;;22.40;7.45;;;17.50;99.90;;;;;;5448042;26;19999;-71
2024/04/14 08:15:02;;;;;;;18.05;6.70;;;17.60;99.90;;;;;;5443062;26;20012;-71
2024/04/14 08:17:32;;;;;;;17.05;5.40;;;17.70;99.90;;;;;;5423400;26;20076;-72
2024/04/14 08:19:57;;;;;;;16.08;4.82;;;17.80;99.90;;;;;;5468446;26;19999;-72
2024/04/14 08:22:23;;;;;;;15.52;4.70;;;17.90;99.90;;;;;;5401742;26;20031;-72
2024/04/14 08:24:48;;;;;;;25.75;5.35;;;17.90;99.90;;;;;;5448293;26;20013;-72
2024/04/14 08:27:14;;;;;;;18.58;5.38;;;17.90;99.90;;;;;;5419897;26;20003;-71
2024/04/14 08:29:40;;;;;;;17.20;5.72;;;18.00;99.90;;;;;;5441614;26;20463;-72
2024/04/14 08:32:06;;;;;;;17.85;5.35;;;18.10;99.90;;;;;;5447774;26;20435;-73
2024/04/14 08:34:32;;;;;;;18.75;5.50;;;18.30;99.90;;;;;;5431340;26;20003;-72
2024/04/14 08:36:58;;;;;;;18.52;5.35;;;18.40;99.90;;;;;;5450526;26;20009;-72
2024/04/14 08:39:23;;;;;;;14.82;5.53;;;18.50;99.90;;;;;;5484211;26;20006;-74
2024/04/14 08:41:49;;;;;;;19.35;6.63;;;18.40;99.90;;;;;;5367046;26;20089;-72
2024/04/14 08:44:15;;;;;;;22.05;6.53;;;18.50;99.90;;;;;;5425412;26;20166;-74
2024/04/14 08:46:42;;;;;;;21.83;6.40;;;18.50;99.90;;;;;;5406210;26;20002;-71
2024/04/14 08:49:10;;;;;;;22.08;6.68;;;18.40;99.90;;;;;;5484148;26;20014;-72
2024/04/14 08:51:35;;;;;;;16.95;6.50;;;18.50;99.90;;;;;;5427950;26;20448;-72
2024/04/14 08:54:01;;;;;;;22.00;6.68;;;18.40;99.90;;;;;;5423848;26;20075;-72
2024/04/14 08:56:34;;;;;;;14.80;6.50;;;18.40;99.90;;;;;;5395180;26;20010;-72
2024/04/14 08:59:07;;;;;;;21.85;6.22;;;18.40;99.90;;;;;;5437534;26;20017;-72
2024/04/14 09:01:36;;;;;;;16.73;5.80;;;18.30;99.90;;;;;;5419020;26;20343;-72
2024/04/14 09:04:04;;;;;;;18.48;4.60;;;18.20;99.90;;;;;;5442435;26;20055;-72
2024/04/14 09:06:31;;;;;;;17.38;4.38;;;18.00;99.90;;;;;;5415187;26;20010;-73
2024/04/14 09:08:57;;;;;;;13.13;4.65;;;17.90;99.90;;;;;;5452417;26;20432;-74
2024/04/14 09:11:23;;;;;;;12.95;3.90;;;18.00;99.90;;;;;;5383331;26;19999;-72
2024/04/14 09:13:50;;;;;;;18.48;4.60;;;18.00;99.90;;;;;;5455556;26;20018;-71
2024/04/14 09:16:17;;;;;;;14.50;4.28;;;18.00;99.90;;;;;;5451825;26;20003;-72
2024/04/14 09:18:43;;;;;;;16.85;4.28;;;18.20;99.90;;;;;;5425365;26;20126;-72
2024/04/14 09:21:09;;;;;;;16.30;4.28;;;18.30;99.90;;;;;;5450414;26;20003;-72
2024/04/14 09:23:35;;;;;;;15.10;4.13;;;18.40;99.90;;;;;;5429223;26;20013;-72
2024/04/14 09:26:05;;;;;;;18.85;4.18;;;18.40;99.90;;;;;;5412059;26;20505;-72
2024/04/14 09:28:31;;;;;;;16.73;3.75;;;18.40;99.90;;;;;;5394183;26;20124;-72
2024/04/14 09:30:58;;;;;;;10.93;2.88;;;18.50;99.90;;;;;;5458460;26;20032;-73
2024/04/14 09:33:25;;;;;;;15.13;3.72;;;18.80;99.90;;;;;;5464599;26;20010;-72
2024/04/14 09:35:51;;;;;;;11.75;3.42;;;19.10;99.90;;;;;;5433115;26;20009;-72
2024/04/14 09:38:18;;;;;;;15.82;3.55;;;19.30;99.70;;;;;;5477875;26;19998;-72
2024/04/14 09:40:44;;;;;;;20.05;3.50;;;19.40;98.80;;;;;;5438552;26;19995;-72
2024/04/14 09:43:11;;;;;;;12.48;2.63;;;19.70;99.00;;;;;;5418830;26;20009;-73
2024/04/14 09:45:37;;;;;;;11.95;3.05;;;20.30;98.10;;;;;;5417724;26;19998;-72
2024/04/14 09:48:04;;;;;;;14.63;4.07;;;20.90;97.40;;;;;;5478263;26;20056;-72
2024/04/14 09:50:34;;;;;;;16.52;3.47;;;21.40;96.60;;;;;;5428355;26;20003;-72
2024/04/14 09:53:02;;;;;;;15.07;3.30;;;21.90;96.10;;;;;;5489520;26;20012;-71
2024/04/14 09:55:28;;;;;;;13.88;3.30;;;21.80;95.50;;;;;;5470901;26;20013;-72
2024/04/14 09:57:54;;;;;;;15.50;3.65;;;21.70;95.20;;;;;;5425285;26;19994;-71
2024/04/14 10:00:20;;;;;;;13.63;3.20;;;21.40;95.20;;;;;;5408466;26;20002;-71
2024/04/14 10:03:01;;;;;;;15.40;3.72;;;21.40;95.40;;;;;;5432729;26;19999;-71
2024/04/14 10:05:28;;;;;;;11.27;3.17;;;21.40;94.90;;;;;;5475516;26;20052;-70
2024/04/14 10:07:54;;;;;;;16.67;3.47;;;21.30;94.30;;;;;;5460413;26;20007;-73
2024/04/14 10:10:22;;;;;;;10.80;3.03;;;21.50;94.50;;;;;;5411331;26;19999;-71
2024/04/14 10:12:47;;;;;;;11.27;3.05;;;21.60;94.40;;;;;;5423019;26;20010;-73
2024/04/14 10:15:14;;;;;;;18.77;4.15;;;21.90;93.80;;;;;;5435872;26;20054;-71
2024/04/14 10:17:40;;;;;;;16.75;3.55;;;22.90;93.60;;;;;;5456446;26;20003;-70
2024/04/14 10:20:12;;;;;;;14.07;3.58;;;23.40;93.10;;;;;;5454821;26;20321;-71
2024/04/14 10:22:40;;;;;;;12.75;3.10;;;23.50;92.40;;;;;;5465050;26;19998;-71
2024/04/14 10:25:17;;;;;;;17.98;4.13;;;23.70;91.90;;;;;;5448684;26;20002;-71
2024/04/14 10:27:43;;;;;;;11.00;3.70;;;23.40;91.60;;;;;;5454039;26;20075;-71
2024/04/14 10:30:10;;;;;;;11.82;3.95;;;23.30;91.40;;;;;;5364093;26;20026;-72
2024/04/14 10:32:35;;;;;;;14.02;3.95;;;23.60;91.70;;;;;;5432974;26;20010;-72
2024/04/14 10:35:15;;;;;;;13.50;3.42;;;23.90;91.00;;;;;;5391998;26;19999;-72
2024/04/14 10:37:51;;;;;;;10.40;3.13;;;23.60;90.50;;;;;;5420383;26;20480;-71
2024/04/14 10:40:18;;;;;;;11.52;2.88;;;23.90;90.40;;;;;;5394968;26;20357;-70
2024/04/14 10:42:45;;;;;;;15.27;3.00;;;24.20;90.00;;;;;;5422021;26;19999;-70
2024/04/14 10:45:11;;;;;;;19.20;5.40;;;24.00;89.70;;;;;;5460343;26;20006;-71
2024/04/14 10:47:37;;;;;;;18.38;3.47;;;23.70;89.30;;;;;;5373445;26;20003;-71
2024/04/14 10:50:03;;;;;;;10.65;3.47;;;23.50;89.90;;;;;;5484751;26;20013;-70
2024/04/14 10:52:29;;;;;;;8.35;3.90;;;23.50;90.00;;;;;;5474255;26;20014;-72
2024/04/14 10:54:56;;;;;;;13.52;3.80;;;23.90;89.40;;;;;;5446829;26;20002;-71
2024/04/14 10:57:22;;;;;;;13.55;4.43;;;24.60;88.50;;;;;;5456123;26;20110;-74
2024/04/14 10:59:47;;;;;;;8.02;3.50;;;25.20;87.60;;;;;;5430741;26;20051;-73
2024/04/14 11:02:14;;;;;;;12.35;3.60;;;25.70;86.10;;;;;;5466575;26;20327;-72
2024/04/14 11:04:41;;;;;;;10.57;4.30;;;26.30;85.90;;;;;;5438575;26;20005;-72
2024/04/14 11:07:07;;;;;;;14.63;3.92;;;27.20;83.80;;;;;;5444238;26;20006;-73
2024/04/14 11:09:34;;;;;;;12.00;3.78;;;27.90;81.50;;;;;;5410767;26;20079;-72
2024/04/14 11:12:01;;;;;;;13.52;3.47;;;28.10;80.40;;;;;;5410989;26;20010;-73
2024/04/14 11:14:28;;;;;;;14.70;3.30;;;28.90;79.00;;;;;;5471139;26;19998;-73
2024/04/14 11:16:54;;;;;;;11.85;3.33;;;29.80;77.90;;;;;;5430636;26;19995;-70
2024/04/14 11:19:20;;;;;;;8.90;3.47;;;30.80;76.00;;;;;;5398145;26;20013;-70
2024/04/14 11:21:46;;;;;;;9.45;3.25;;;31.50;73.40;;;;;;5461639;26;20002;-70
2024/04/14 11:24:12;;;;;;;7.55;2.83;;;32.20;70.90;;;;;;5424543;26;20015;-72
2024/04/14 11:26:41;;;;;;;14.85;3.30;;;32.00;68.70;;;;;;5452166;26;20447;-70
2024/04/14 11:29:07;;;;;;;13.25;3.35;;;31.70;69.10;;;;;;5391951;26;20010;-71
2024/04/14 11:31:39;;;;;;;10.93;3.40;;;31.00;66.90;;;;;;5463857;26;20451;-71
2024/04/14 11:34:07;;;;;;;15.65;3.42;;;30.30;68.40;;;;;;5440169;26;20010;-73
2024/04/14 11:36:33;;;;;;;9.45;3.30;;;30.20;68.10;;;;;;5464818;26;20083;-72
2024/04/14 11:39:03;;;;;;;11.07;3.20;;;30.20;67.90;;;;;;5411211;26;20035;-71
2024/04/14 11:41:30;;;;;;;9.48;3.50;;;30.20;67.20;;;;;;5422602;26;20021;-71
2024/04/14 11:43:56;;;;;;;11.27;3.10;;;30.60;65.60;;;;;;5437040;26;20042;-71
2024/04/14 11:46:21;;;;;;;7.10;2.83;;;29.40;66.20;;;;;;5397564;26;20017;-72
2024/04/14 11:48:47;;;;;;;10.77;2.88;;;29.40;66.40;;;;;;5453794;26;20003;-70
2024/04/14 11:51:13;;;;;;;10.20;2.67;;;29.40;66.30;;;;;;5462097;26;20012;-70
2024/04/14 11:53:38;;;;;;;6.75;2.85;;;29.80;65.20;;;;;;5440336;26;19995;-71
2024/04/14 11:56:05;;;;;;;7.53;3.15;;;29.80;65.30;;;;;;5415461;26;20010;-72
2024/04/14 11:58:30;;;;;;;11.70;3.03;;;28.60;65.90;;;;;;5391007;26;20002;-71
2024/04/14 12:00:56;;;;;;;8.82;2.83;;;27.90;67.00;;;;;;5419937;26;19995;-72
2024/04/14 12:03:22;;;;;;;11.23;3.40;;;27.30;67.80;;;;;;5454127;26;19999;-72
2024/04/14 12:05:48;;;;;;;11.70;3.13;;;26.60;68.70;;;;;;5431528;26;20731;-72
2024/04/14 12:08:14;;;;;;;14.85;3.15;;;26.10;71.60;;;;;;5489609;26;19998;-74
2024/04/14 12:10:40;;;;;;;10.00;3.35;;;26.90;69.60;;;;;;5457874;26;20005;-72
2024/04/14 12:13:07;;;;;;;8.50;3.00;;;27.60;68.80;;;;;;5427441;26;20071;-72
2024/04/14 12:15:33;;;;;;;10.80;3.00;;;27.80;67.90;;;;;;5454156;26;19998;-72
2024/04/14 12:17:58;;;;;;;13.23;4.50;;;27.20;68.70;;;;;;5427140;26;20002;-72
2024/04/14 12:20:24;;;;;;;11.23;3.30;;;26.10;68.90;;;;;;5427411;26;20798;-71
2024/04/14 12:22:50;;;;;;;12.00;3.90;;;25.40;70.70;;;;;;5457323;26;19995;-72
2024/04/14 12:25:15;;;;;;;9.55;3.05;;;25.10;70.70;;;;;;5424019;26;20010;-71
2024/04/14 12:27:41;;;;;;;12.88;3.28;;;24.90;71.10;;;;;;5362976;26;19999;-72
2024/04/14 12:30:07;;;;;;;15.80;3.15;;;25.00;70.70;;;;;;5443734;26;19998;-72